Time;durP1;ratioP1;P1;durP2;ratioP2;P2;SDS_P1;SDS_P2;PMS_P1;PMS_P2;Temp;Humidity;BMP_temperature;BMP_pressure;BME280_temperature;BME280_humidity;BME280_pressure;Samples;Min_cycle;Max_cycle;Signal;HPM_P1;HPM_P2
2022/05/30 00:02:21;;;;;;;11.73;4.27;;;10.50;99.90;;;;;;5120301;28;20827;-82
2022/05/30 00:04:50;;;;;;;12.00;4.00;;;10.60;99.90;;;;;;5119959;28;20562;-82
2022/05/30 00:07:18;;;;;;;11.47;3.83;;;10.50;99.90;;;;;;5120665;28;20443;-82
2022/05/30 00:09:49;;;;;;;11.47;4.60;;;10.50;99.90;;;;;;5119299;28;20496;-83
2022/05/30 00:12:17;;;;;;;12.40;4.83;;;10.50;99.90;;;;;;5119627;28;20435;-82
2022/05/30 00:14:46;;;;;;;12.20;4.90;;;10.50;99.90;;;;;;5120880;28;21002;-81
2022/05/30 00:17:15;;;;;;;12.00;4.63;;;10.50;99.90;;;;;;5121195;28;20511;-82
2022/05/30 00:19:44;;;;;;;10.93;4.20;;;10.50;99.90;;;;;;5120493;28;20507;-82
2022/05/30 00:22:14;;;;;;;11.27;4.57;;;10.50;99.90;;;;;;5119597;28;20479;-83
2022/05/30 00:24:44;;;;;;;13.97;4.60;;;10.60;99.90;;;;;;5119547;28;20570;-82
2022/05/30 00:27:12;;;;;;;12.07;4.80;;;10.50;99.90;;;;;;5119453;28;20471;-83
2022/05/30 00:29:41;;;;;;;12.50;4.20;;;10.40;99.90;;;;;;5126379;28;20454;-81
2022/05/30 00:32:10;;;;;;;11.07;3.80;;;10.50;99.90;;;;;;5126069;28;20483;-83
2022/05/30 00:34:40;;;;;;;10.07;3.80;;;10.50;99.90;;;;;;5124481;28;20463;-83
2022/05/30 00:37:08;;;;;;;10.53;4.60;;;10.50;99.90;;;;;;5124212;28;20450;-82
2022/05/30 00:39:36;;;;;;;11.00;4.10;;;10.50;99.90;;;;;;5123465;28;20448;-83
2022/05/30 00:42:10;;;;;;;10.13;3.43;;;10.50;99.90;;;;;;5122197;28;20487;-83
2022/05/30 00:44:38;;;;;;;12.60;3.60;;;10.50;99.90;;;;;;5121658;28;20463;-83
2022/05/30 00:47:06;;;;;;;10.07;3.70;;;10.50;99.90;;;;;;5122389;28;20439;-82
2022/05/30 00:49:36;;;;;;;9.87;4.20;;;10.50;99.90;;;;;;5121546;28;20538;-82
2022/05/30 00:52:07;;;;;;;11.23;4.00;;;10.50;99.90;;;;;;5122196;28;20457;-83
2022/05/30 00:54:41;;;;;;;10.27;3.90;;;10.50;99.90;;;;;;5121894;28;20493;-83
2022/05/30 00:57:21;;;;;;;9.67;4.00;;;10.50;99.90;;;;;;5121086;28;20467;-83
2022/05/30 00:59:54;;;;;;;13.07;3.73;;;10.40;99.90;;;;;;5119810;28;20463;-81
2022/05/30 01:02:26;;;;;;;9.40;3.40;;;10.40;99.90;;;;;;5120533;28;20469;-82
2022/05/30 01:07:45;;;;;;;12.00;4.47;;;10.40;99.90;;;;;;5120777;28;20951;-82
2022/05/30 01:10:17;;;;;;;10.40;3.80;;;10.40;99.90;;;;;;5119054;28;20823;-82
2022/05/30 01:12:49;;;;;;;9.30;3.83;;;10.40;99.90;;;;;;5119081;28;20443;-82
2022/05/30 01:15:20;;;;;;;11.40;3.60;;;10.40;99.90;;;;;;5119375;28;20450;-82
2022/05/30 01:17:52;;;;;;;10.97;3.97;;;10.40;99.90;;;;;;5120226;28;20474;-82
2022/05/30 01:20:35;;;;;;;10.10;3.80;;;10.40;99.90;;;;;;5118782;28;21023;-82
2022/05/30 01:23:21;;;;;;;9.23;3.97;;;10.40;99.90;;;;;;5119321;28;20476;-83
2022/05/30 01:26:18;;;;;;;8.23;3.90;;;10.40;99.90;;;;;;5118667;28;20459;-82
2022/05/30 01:29:01;;;;;;;10.53;3.70;;;10.30;99.90;;;;;;5118477;28;20439;-82
2022/05/30 01:31:31;;;;;;;13.20;3.97;;;10.30;99.90;;;;;;5118383;28;20474;-82
2022/05/30 01:34:00;;;;;;;9.93;3.37;;;10.30;99.90;;;;;;5117642;28;20475;-82
2022/05/30 01:36:30;;;;;;;10.40;4.17;;;10.30;99.90;;;;;;5118521;28;20530;-81
2022/05/30 01:38:59;;;;;;;12.50;4.30;;;10.30;99.90;;;;;;5119392;28;20430;-82
2022/05/30 01:41:50;;;;;;;10.53;3.93;;;10.30;99.90;;;;;;5118378;28;20471;-82
2022/05/30 01:44:20;;;;;;;10.83;4.00;;;10.30;99.90;;;;;;5117960;28;20563;-82
2022/05/30 01:46:48;;;;;;;10.37;4.20;;;10.30;99.90;;;;;;5117832;28;20523;-82
2022/05/30 01:49:17;;;;;;;10.93;4.20;;;10.40;99.90;;;;;;5117118;28;20454;-82
2022/05/30 01:51:46;;;;;;;9.43;4.03;;;10.30;99.90;;;;;;5117976;28;20447;-82
2022/05/30 01:54:16;;;;;;;9.40;3.37;;;10.30;99.90;;;;;;5117958;28;20475;-82
2022/05/30 01:56:44;;;;;;;8.60;3.90;;;10.20;99.90;;;;;;5119461;28;20441;-82
2022/05/30 01:59:13;;;;;;;9.83;3.80;;;10.30;99.90;;;;;;5117421;28;21088;-82
2022/05/30 02:01:45;;;;;;;11.43;3.90;;;10.30;99.90;;;;;;5119222;28;20439;-82
2022/05/30 02:04:18;;;;;;;9.03;3.47;;;10.30;99.90;;;;;;5120835;28;20477;-82
2022/05/30 02:06:46;;;;;;;7.57;3.40;;;10.20;99.90;;;;;;5121129;28;20444;-82
2022/05/30 02:09:15;;;;;;;8.27;3.67;;;10.20;99.90;;;;;;5120423;28;20443;-81
2022/05/30 02:11:43;;;;;;;9.57;4.23;;;10.20;99.90;;;;;;5120206;28;20986;-81
2022/05/30 02:14:30;;;;;;;8.20;3.43;;;10.20;99.90;;;;;;5122113;28;20507;-82
2022/05/30 02:17:00;;;;;;;10.60;4.30;;;10.20;99.90;;;;;;5121562;28;20458;-81
2022/05/30 02:19:31;;;;;;;11.13;4.30;;;10.20;99.90;;;;;;5121304;28;21020;-83
2022/05/30 02:22:04;;;;;;;15.47;5.10;;;10.20;99.90;;;;;;5120556;28;20494;-82
2022/05/30 02:24:33;;;;;;;11.00;4.67;;;10.20;99.90;;;;;;5120002;28;20489;-81
2022/05/30 02:27:01;;;;;;;14.77;4.20;;;10.10;99.90;;;;;;5120277;28;20465;-82
2022/05/30 02:29:30;;;;;;;10.00;4.20;;;10.10;99.90;;;;;;5120671;28;20452;-82
2022/05/30 02:32:02;;;;;;;11.20;3.97;;;10.00;99.90;;;;;;5120527;28;20519;-82
2022/05/30 02:37:20;;;;;;;8.20;3.27;;;10.00;99.90;;;;;;5120018;28;20542;-82
2022/05/30 02:39:50;;;;;;;11.13;3.83;;;10.00;99.90;;;;;;5120279;28;20976;-82
2022/05/30 02:42:36;;;;;;;8.63;3.97;;;10.00;99.90;;;;;;5121210;28;20489;-82
2022/05/30 02:45:06;;;;;;;12.47;4.13;;;10.00;99.90;;;;;;5119696;28;20464;-82
2022/05/30 02:47:36;;;;;;;10.90;3.53;;;9.90;99.90;;;;;;5120134;28;20987;-82
2022/05/30 02:50:09;;;;;;;11.27;3.90;;;9.90;99.90;;;;;;5119919;28;20443;-82
2022/05/30 02:52:38;;;;;;;9.50;4.60;;;9.90;99.90;;;;;;5119892;28;20439;-82
2022/05/30 02:55:12;;;;;;;9.80;4.27;;;9.90;99.90;;;;;;5119714;28;20493;-81
2022/05/30 02:57:50;;;;;;;8.90;3.73;;;9.90;99.90;;;;;;5119370;28;20451;-81
2022/05/30 03:00:20;;;;;;;11.30;3.97;;;9.80;99.90;;;;;;5119930;28;20447;-81
2022/05/30 03:02:55;;;;;;;11.10;3.70;;;9.80;99.90;;;;;;5119549;28;20467;-82
2022/05/30 03:05:23;;;;;;;11.70;4.20;;;9.80;99.90;;;;;;5119742;28;20467;-81
2022/05/30 03:07:51;;;;;;;8.87;4.30;;;9.70;99.90;;;;;;5118762;28;20497;-81
2022/05/30 03:10:40;;;;;;;9.10;3.70;;;9.80;99.90;;;;;;5112774;28;20503;-81
2022/05/30 03:13:08;;;;;;;10.70;4.00;;;9.70;99.90;;;;;;5119897;28;20486;-82
2022/05/30 03:15:38;;;;;;;9.73;3.40;;;9.70;99.90;;;;;;5120586;28;20531;-82
2022/05/30 03:18:09;;;;;;;12.17;4.07;;;9.60;99.90;;;;;;5120110;28;20450;-82
2022/05/30 03:20:37;;;;;;;8.40;3.70;;;9.60;99.90;;;;;;5120747;28;21024;-81
2022/05/30 03:23:06;;;;;;;11.53;4.23;;;9.60;99.90;;;;;;5120942;28;20815;-82
2022/05/30 03:25:35;;;;;;;14.90;3.70;;;9.60;99.90;;;;;;5122167;28;20955;-82
2022/05/30 03:28:04;;;;;;;9.27;3.57;;;9.60;99.90;;;;;;5120195;28;20450;-82
2022/05/30 03:30:37;;;;;;;10.37;4.37;;;9.60;99.90;;;;;;5119892;28;20454;-82
2022/05/30 03:33:08;;;;;;;9.53;3.70;;;9.60;99.90;;;;;;5120236;28;20467;-81
2022/05/30 03:35:37;;;;;;;10.30;3.70;;;9.60;99.90;;;;;;5121397;28;20428;-82
2022/05/30 03:38:33;;;;;;;9.10;4.03;;;9.60;99.90;;;;;;5120052;28;20563;-82
2022/05/30 03:41:10;;;;;;;7.83;3.70;;;9.60;99.90;;;;;;5120740;28;20419;-82
2022/05/30 03:44:04;;;;;;;9.80;3.80;;;9.60;99.90;;;;;;5109713;28;20526;-82
2022/05/30 03:46:33;;;;;;;9.70;3.37;;;9.60;99.90;;;;;;5119881;28;20547;-82
2022/05/30 03:49:04;;;;;;;8.73;4.03;;;9.60;99.90;;;;;;5118233;28;20457;-82
2022/05/30 03:51:34;;;;;;;9.80;4.43;;;9.60;99.90;;;;;;5118444;28;20458;-82
2022/05/30 03:54:02;;;;;;;8.53;3.43;;;9.60;99.90;;;;;;5120308;28;20462;-82
2022/05/30 03:56:30;;;;;;;9.30;4.30;;;9.50;99.90;;;;;;5119610;28;20447;-82
2022/05/30 03:58:59;;;;;;;10.47;3.60;;;9.50;99.90;;;;;;5119210;28;20471;-82
2022/05/30 04:01:27;;;;;;;11.30;4.03;;;9.50;99.90;;;;;;5119857;28;20534;-82
2022/05/30 04:03:56;;;;;;;8.07;3.83;;;9.50;99.90;;;;;;5121615;28;20509;-82
2022/05/30 04:06:25;;;;;;;7.17;3.13;;;9.50;99.90;;;;;;5119498;28;20468;-82
2022/05/30 04:08:56;;;;;;;11.50;3.80;;;9.50;99.90;;;;;;5118575;28;20443;-82
2022/05/30 04:11:39;;;;;;;7.90;3.00;;;9.40;99.90;;;;;;5120670;28;20799;-82
2022/05/30 04:14:31;;;;;;;8.63;3.10;;;9.50;99.90;;;;;;5125420;28;20455;-82
2022/05/30 04:17:22;;;;;;;9.47;4.00;;;9.50;99.90;;;;;;5134945;28;20432;-82
2022/05/30 04:19:51;;;;;;;9.23;3.13;;;9.50;99.90;;;;;;5133319;28;20473;-82
2022/05/30 04:22:23;;;;;;;9.30;3.33;;;9.50;99.90;;;;;;5136094;28;20456;-80
2022/05/30 04:25:18;;;;;;;8.33;3.33;;;9.50;99.90;;;;;;5122140;28;20440;-82
2022/05/30 04:27:46;;;;;;;10.60;3.43;;;9.50;99.90;;;;;;5133980;28;20464;-82
2022/05/30 04:30:15;;;;;;;5.87;2.70;;;9.50;99.90;;;;;;5130040;28;20450;-82
2022/05/30 04:32:48;;;;;;;6.83;3.53;;;9.50;99.90;;;;;;5131946;28;20519;-82
2022/05/30 04:35:19;;;;;;;8.27;3.20;;;9.60;99.90;;;;;;5132134;28;20821;-82
2022/05/30 04:37:49;;;;;;;6.83;3.10;;;9.60;99.90;;;;;;5132774;28;20471;-81
2022/05/30 04:40:40;;;;;;;7.67;3.10;;;9.70;99.90;;;;;;5133564;28;20439;-81
2022/05/30 04:43:28;;;;;;;5.60;2.47;;;9.60;99.90;;;;;;5133775;28;20497;-81
2022/05/30 04:46:27;;;;;;;6.80;3.07;;;9.60;99.90;;;;;;5097678;28;20477;-82
2022/05/30 04:48:55;;;;;;;6.70;3.20;;;9.70;99.90;;;;;;5133208;28;20431;-82
2022/05/30 04:51:30;;;;;;;7.30;3.40;;;9.70;99.90;;;;;;5131733;28;20460;-81
2022/05/30 04:54:00;;;;;;;8.57;2.87;;;9.70;99.90;;;;;;5131820;28;20463;-82
2022/05/30 04:56:47;;;;;;;8.20;3.03;;;9.80;99.90;;;;;;5128091;28;20437;-82
2022/05/30 04:59:24;;;;;;;7.17;3.07;;;9.80;99.90;;;;;;5121074;28;20435;-82
2022/05/30 05:01:57;;;;;;;7.50;2.67;;;9.80;99.90;;;;;;5120782;28;20439;-82
2022/05/30 05:04:27;;;;;;;7.20;3.10;;;9.90;99.90;;;;;;5120014;28;20479;-82
2022/05/30 05:06:55;;;;;;;11.27;3.50;;;9.90;99.90;;;;;;5120414;28;20473;-83
2022/05/30 05:09:35;;;;;;;6.63;3.37;;;9.90;99.90;;;;;;5120271;28;20471;-82
2022/05/30 05:12:10;;;;;;;7.80;3.03;;;10.00;99.90;;;;;;5119958;28;20436;-83
2022/05/30 05:15:05;;;;;;;7.30;2.90;;;10.00;99.90;;;;;;5119031;28;20446;-83
2022/05/30 05:17:59;;;;;;;9.50;3.60;;;10.00;99.90;;;;;;5120257;28;20956;-82
2022/05/30 05:20:27;;;;;;;9.40;3.47;;;10.00;99.90;;;;;;5118271;28;20477;-83
2022/05/30 05:22:56;;;;;;;7.23;2.90;;;10.10;99.90;;;;;;5118858;28;20475;-82
2022/05/30 05:25:46;;;;;;;8.33;3.80;;;10.10;99.90;;;;;;5119595;28;20462;-82
2022/05/30 05:28:43;;;;;;;6.63;2.77;;;10.10;99.90;;;;;;5110067;28;20443;-82
2022/05/30 05:31:17;;;;;;;7.00;2.60;;;10.20;99.90;;;;;;5118201;28;20488;-82
2022/05/30 05:33:51;;;;;;;10.30;2.80;;;10.20;99.90;;;;;;5118046;28;20509;-82
2022/05/30 05:36:21;;;;;;;6.50;3.00;;;10.20;99.90;;;;;;5118851;28;20512;-81
2022/05/30 05:38:49;;;;;;;6.70;2.90;;;10.20;99.90;;;;;;5122224;28;20799;-82
2022/05/30 05:41:41;;;;;;;8.90;3.13;;;10.30;99.90;;;;;;5122759;28;20888;-82
2022/05/30 05:44:13;;;;;;;8.83;3.33;;;10.30;99.90;;;;;;5121620;28;20501;-82
2022/05/30 05:46:43;;;;;;;7.77;3.27;;;10.40;99.90;;;;;;5124132;28;20455;-81
2022/05/30 05:49:11;;;;;;;7.00;3.07;;;10.40;99.90;;;;;;5124044;28;20820;-82
2022/05/30 05:51:41;;;;;;;11.80;3.10;;;10.50;99.90;;;;;;5125051;28;20443;-82
2022/05/30 05:54:12;;;;;;;12.60;3.37;;;10.60;99.90;;;;;;5128794;28;20467;-81
2022/05/30 05:56:42;;;;;;;9.97;3.57;;;10.60;99.90;;;;;;5126894;28;20473;-83
2022/05/30 05:59:23;;;;;;;9.80;3.97;;;10.70;99.90;;;;;;5126461;28;21003;-83
2022/05/30 06:01:52;;;;;;;8.47;3.00;;;10.70;99.90;;;;;;5124564;28;20455;-82
2022/05/30 06:04:22;;;;;;;7.20;3.03;;;10.80;99.90;;;;;;5124249;28;20455;-82
2022/05/30 06:07:01;;;;;;;6.70;2.90;;;10.90;99.90;;;;;;5124726;28;20549;-83
2022/05/30 06:09:41;;;;;;;7.40;2.90;;;10.90;99.90;;;;;;5123979;28;20466;-82
2022/05/30 06:12:16;;;;;;;10.30;3.70;;;11.00;99.90;;;;;;5123264;28;20431;-83
2022/05/30 06:14:45;;;;;;;6.50;2.70;;;11.00;99.90;;;;;;5123803;28;20470;-82
2022/05/30 06:17:14;;;;;;;6.50;2.53;;;11.00;99.90;;;;;;5123210;28;20439;-81
2022/05/30 06:19:43;;;;;;;6.20;2.40;;;11.00;99.90;;;;;;5122626;28;21001;-82
2022/05/30 06:22:11;;;;;;;8.33;3.27;;;11.10;99.90;;;;;;5122583;28;20451;-82
2022/05/30 06:24:40;;;;;;;7.50;3.10;;;11.10;99.90;;;;;;5122314;28;20830;-81
2022/05/30 06:27:28;;;;;;;6.50;2.83;;;11.10;99.90;;;;;;5123470;28;20815;-80
2022/05/30 06:29:56;;;;;;;7.27;3.13;;;11.20;99.90;;;;;;5124349;28;20438;-84
2022/05/30 06:32:26;;;;;;;7.20;3.03;;;11.20;99.90;;;;;;5122771;28;20557;-82
2022/05/30 06:35:07;;;;;;;6.47;2.50;;;11.30;99.90;;;;;;5122197;28;20427;-83
2022/05/30 06:37:39;;;;;;;7.57;2.50;;;11.30;99.90;;;;;;5121978;28;20439;-81
2022/05/30 06:40:10;;;;;;;7.33;3.07;;;11.40;99.90;;;;;;5121719;28;20448;-84
2022/05/30 06:42:56;;;;;;;6.37;2.80;;;11.40;99.90;;;;;;5121758;28;20474;-82
2022/05/30 06:45:48;;;;;;;7.13;2.53;;;11.50;99.90;;;;;;5122637;28;21078;-82
2022/05/30 06:48:36;;;;;;;7.53;2.53;;;11.50;99.90;;;;;;5122664;28;20543;-83
2022/05/30 06:51:27;;;;;;;6.50;2.77;;;11.60;99.90;;;;;;5122605;28;20534;-83
2022/05/30 06:54:00;;;;;;;7.80;2.63;;;11.60;99.90;;;;;;5122137;28;20983;-83
2022/05/30 06:56:31;;;;;;;6.77;2.57;;;11.70;99.90;;;;;;5121422;28;20450;-83
2022/05/30 06:59:00;;;;;;;6.60;2.37;;;11.80;99.90;;;;;;5120765;28;20928;-83
2022/05/30 07:01:32;;;;;;;6.87;2.93;;;11.90;99.90;;;;;;5121207;28;20439;-83
2022/05/30 07:04:19;;;;;;;8.57;2.87;;;12.00;99.90;;;;;;5120624;28;20828;-82
2022/05/30 07:07:07;;;;;;;6.13;2.40;;;12.10;99.90;;;;;;5124246;28;20422;-81
2022/05/30 07:09:55;;;;;;;9.30;2.83;;;12.20;99.90;;;;;;5122996;28;20415;-82
2022/05/30 07:12:44;;;;;;;14.90;6.13;;;12.30;99.90;;;;;;5122441;28;20454;-83
2022/05/30 07:15:14;;;;;;;7.00;3.03;;;12.40;99.90;;;;;;5122119;28;20444;-82
2022/05/30 07:17:43;;;;;;;5.40;2.47;;;12.50;99.90;;;;;;5120443;28;20435;-82
2022/05/30 07:20:13;;;;;;;7.40;3.00;;;12.60;99.90;;;;;;5121068;28;20473;-82
2022/05/30 07:23:08;;;;;;;6.90;3.10;;;12.70;99.90;;;;;;5105979;28;20534;-81
2022/05/30 07:25:59;;;;;;;13.80;4.93;;;12.70;99.90;;;;;;5122502;28;20430;-84
2022/05/30 07:28:46;;;;;;;7.20;2.47;;;12.80;99.90;;;;;;5122194;28;20524;-83
2022/05/30 07:31:34;;;;;;;7.40;2.70;;;12.90;99.90;;;;;;5122586;28;20428;-80
2022/05/30 07:34:25;;;;;;;5.60;2.40;;;13.00;99.90;;;;;;5102481;28;20474;-81
2022/05/30 07:37:12;;;;;;;7.00;2.70;;;13.10;99.90;;;;;;5122640;28;20464;-82
2022/05/30 07:40:02;;;;;;;9.17;3.77;;;13.30;99.90;;;;;;5120666;28;21036;-82
2022/05/30 07:42:45;;;;;;;8.30;4.17;;;13.30;99.90;;;;;;5120170;28;20466;-83
2022/05/30 07:45:33;;;;;;;8.13;2.83;;;13.20;99.90;;;;;;5102851;28;20455;-82
2022/05/30 07:48:11;;;;;;;8.17;3.07;;;13.30;99.90;;;;;;5121637;28;20508;-83
2022/05/30 07:50:48;;;;;;;8.00;2.87;;;13.40;99.90;;;;;;5121464;28;20430;-82
2022/05/30 07:53:26;;;;;;;6.00;2.73;;;13.50;99.90;;;;;;5120709;28;20471;-83
2022/05/30 07:56:06;;;;;;;7.53;2.30;;;13.50;99.90;;;;;;5121585;28;20419;-83
2022/05/30 07:58:34;;;;;;;6.23;3.20;;;13.60;99.90;;;;;;5120413;28;20440;-82
2022/05/30 08:01:03;;;;;;;6.30;2.43;;;13.70;99.90;;;;;;5118964;28;20450;-84
2022/05/30 08:03:35;;;;;;;7.43;2.77;;;13.60;99.90;;;;;;5119856;28;20493;-81
2022/05/30 08:06:27;;;;;;;6.77;3.00;;;13.70;99.90;;;;;;5120725;28;20427;-82
2022/05/30 08:09:13;;;;;;;7.27;2.90;;;13.70;99.90;;;;;;5120293;28;20442;-83
2022/05/30 08:12:17;;;;;;;6.37;3.50;;;13.70;99.90;;;;;;5112226;28;20447;-82
2022/05/30 08:15:06;;;;;;;5.67;3.17;;;13.60;99.80;;;;;;5108352;28;20443;-83
2022/05/30 08:17:55;;;;;;;7.50;3.63;;;13.70;99.70;;;;;;5120712;28;20527;-80
2022/05/30 08:20:27;;;;;;;5.70;2.40;;;13.90;99.60;;;;;;5119296;28;20976;-81
2022/05/30 08:22:56;;;;;;;6.97;3.20;;;13.90;99.40;;;;;;5119051;28;20475;-80
2022/05/30 08:25:26;;;;;;;5.90;2.73;;;13.90;99.50;;;;;;5119035;28;20451;-83
2022/05/30 08:27:55;;;;;;;7.33;3.70;;;14.10;99.60;;;;;;5118913;28;20539;-82
2022/05/30 08:30:24;;;;;;;8.87;3.97;;;14.30;99.60;;;;;;5119648;28;20812;-82
2022/05/30 08:33:13;;;;;;;6.10;2.77;;;14.40;99.60;;;;;;5119354;28;20819;-83
2022/05/30 08:36:08;;;;;;;6.83;3.70;;;14.50;99.50;;;;;;5113736;28;20447;-85
2022/05/30 08:38:39;;;;;;;6.30;3.00;;;14.60;99.50;;;;;;5118550;28;20436;-82
2022/05/30 08:44:07;;;;;;;9.70;3.07;;;14.60;99.10;;;;;;5118223;28;20482;-81
2022/05/30 08:46:57;;;;;;;6.63;3.43;;;14.60;98.90;;;;;;5118232;28;20443;-81
2022/05/30 08:49:34;;;;;;;7.83;2.77;;;14.50;98.60;;;;;;5118112;28;20473;-83
2022/05/30 08:52:29;;;;;;;7.27;3.30;;;14.60;98.50;;;;;;5118741;28;20473;-83
2022/05/30 08:55:13;;;;;;;5.70;3.37;;;14.80;98.40;;;;;;5118227;28;20561;-83
2022/05/30 08:57:54;;;;;;;5.03;2.63;;;14.80;98.20;;;;;;5117396;28;20939;-82
2022/05/30 09:00:30;;;;;;;6.40;2.23;;;14.90;98.30;;;;;;5117280;28;20445;-82
2022/05/30 09:03:21;;;;;;;7.27;2.67;;;15.00;98.30;;;;;;5119970;28;20919;-82
2022/05/30 09:05:56;;;;;;;6.27;2.87;;;15.20;98.30;;;;;;5118835;28;20438;-81
2022/05/30 09:08:38;;;;;;;9.53;3.37;;;15.20;98.00;;;;;;5118060;28;20467;-82
2022/05/30 09:11:31;;;;;;;4.90;2.50;;;15.30;97.90;;;;;;5119954;28;20420;-81
2022/05/30 09:14:10;;;;;;;5.20;2.53;;;15.20;97.50;;;;;;5122521;28;20494;-82
2022/05/30 09:16:47;;;;;;;6.90;3.23;;;15.10;97.40;;;;;;5121926;28;20861;-81
2022/05/30 09:19:21;;;;;;;6.27;2.10;;;15.10;97.20;;;;;;5122028;28;20836;-83
2022/05/30 09:21:53;;;;;;;7.57;2.50;;;15.00;97.00;;;;;;5121909;28;20413;-82
2022/05/30 09:24:23;;;;;;;6.13;3.20;;;14.90;96.80;;;;;;5124326;28;20470;-84
2022/05/30 09:26:52;;;;;;;5.37;2.13;;;14.90;96.90;;;;;;5123396;28;20455;-82
2022/05/30 09:29:27;;;;;;;5.63;2.73;;;14.90;96.80;;;;;;5121649;28;20578;-82
2022/05/30 09:32:20;;;;;;;5.20;3.40;;;14.80;96.60;;;;;;5122446;28;20430;-82
2022/05/30 09:35:22;;;;;;;4.83;2.37;;;14.90;96.50;;;;;;5102710;28;20948;-83
2022/05/30 09:38:11;;;;;;;5.30;3.00;;;14.90;96.40;;;;;;5122452;28;20781;-84
2022/05/30 09:41:06;;;;;;;6.40;2.33;;;14.90;96.50;;;;;;5122696;28;20423;-82
2022/05/30 09:44:13;;;;;;;4.40;2.00;;;14.90;96.10;;;;;;5113944;28;20526;-84
2022/05/30 09:46:51;;;;;;;5.20;1.80;;;14.80;95.80;;;;;;5120072;28;20947;-86
2022/05/30 09:49:42;;;;;;;5.53;2.00;;;14.70;95.70;;;;;;5122124;28;20425;-82
2022/05/30 09:52:26;;;;;;;6.10;2.23;;;14.70;95.70;;;;;;5120224;28;20463;-83
2022/05/30 09:54:57;;;;;;;6.57;2.10;;;14.60;95.60;;;;;;5120450;28;20503;-81
2022/05/30 09:57:32;;;;;;;4.40;1.60;;;14.60;95.70;;;;;;5119437;28;20482;-83
2022/05/30 10:00:17;;;;;;;5.13;2.00;;;14.60;95.60;;;;;;5119061;28;20470;-83
2022/05/30 10:03:00;;;;;;;4.97;2.00;;;14.50;95.70;;;;;;5120501;28;20427;-85
2022/05/30 10:05:30;;;;;;;4.93;2.33;;;14.60;95.80;;;;;;5119331;28;20500;-84
2022/05/30 10:08:01;;;;;;;5.60;2.13;;;14.60;95.80;;;;;;5119592;28;20418;-82
2022/05/30 10:10:50;;;;;;;5.33;2.00;;;14.60;95.90;;;;;;5120317;28;20459;-83
2022/05/30 10:13:35;;;;;;;5.70;2.37;;;14.70;96.10;;;;;;5121382;28;20429;-82
2022/05/30 10:16:31;;;;;;;4.40;1.80;;;14.70;95.70;;;;;;5124359;28;20415;-85
2022/05/30 10:19:02;;;;;;;5.87;1.97;;;14.70;95.70;;;;;;5121476;28;20796;-85
2022/05/30 10:28:50;;;;;;;5.57;3.20;;;14.80;95.30;;;;;;5098999;27;20444;-84
2022/05/30 10:31:49;;;;;;;5.37;2.77;;;14.80;95.40;;;;;;5123636;28;20437;-85
2022/05/30 10:34:49;;;;;;;5.00;2.57;;;14.80;95.50;;;;;;5122253;28;20490;-84
2022/05/30 10:37:36;;;;;;;7.73;2.80;;;14.70;95.50;;;;;;5121718;28;20810;-84
2022/05/30 10:40:27;;;;;;;5.47;2.13;;;14.70;95.50;;;;;;5120239;28;20917;-84
2022/05/30 10:43:03;;;;;;;6.00;2.60;;;14.70;95.50;;;;;;5119491;28;20930;-84
2022/05/30 10:45:44;;;;;;;5.37;2.63;;;14.70;95.70;;;;;;5120982;28;20975;-84
2022/05/30 10:48:19;;;;;;;8.73;3.00;;;14.70;96.00;;;;;;5121041;28;20443;-84
2022/05/30 10:50:53;;;;;;;5.90;2.73;;;14.70;95.80;;;;;;5121087;28;20508;-85
2022/05/30 10:53:39;;;;;;;5.87;2.73;;;14.80;95.70;;;;;;5120466;28;20463;-84
2022/05/30 10:56:30;;;;;;;6.17;2.83;;;14.80;95.70;;;;;;5121885;28;20410;-83
2022/05/30 10:59:16;;;;;;;6.60;2.50;;;14.80;95.80;;;;;;5120394;28;20471;-85
2022/05/30 11:01:51;;;;;;;5.20;2.30;;;14.90;95.80;;;;;;5119983;28;20470;-86
2022/05/30 11:04:44;;;;;;;5.33;2.23;;;14.90;95.80;;;;;;5120158;28;20913;-85
2022/05/30 11:07:29;;;;;;;4.70;1.87;;;15.00;95.60;;;;;;5118049;28;20940;-84
2022/05/30 11:10:06;;;;;;;4.50;1.90;;;15.10;95.60;;;;;;5120117;28;20470;-83
2022/05/30 11:12:39;;;;;;;4.77;1.83;;;15.10;95.50;;;;;;5120199;28;20435;-83
2022/05/30 11:15:15;;;;;;;5.00;2.23;;;15.20;95.50;;;;;;5120182;28;20455;-84
2022/05/30 11:18:32;;;;;;;4.50;2.00;;;15.20;95.20;;;;;;5120632;28;20748;-84
2022/05/30 11:21:28;;;;;;;5.67;2.03;;;15.20;95.20;;;;;;5098683;28;20518;-85
2022/05/30 11:24:01;;;;;;;5.50;2.23;;;15.20;95.20;;;;;;5119292;28;20534;-84
2022/05/30 11:27:00;;;;;;;6.30;2.50;;;15.30;95.30;;;;;;5119625;28;20453;-85
2022/05/30 11:29:55;;;;;;;4.50;1.83;;;15.30;95.10;;;;;;5113554;28;20575;-84
2022/05/30 11:32:37;;;;;;;5.27;2.17;;;15.30;95.10;;;;;;5120134;28;20435;-82
2022/05/30 11:35:31;;;;;;;5.20;1.87;;;15.30;95.10;;;;;;5118956;28;20454;-85
2022/05/30 11:38:14;;;;;;;7.13;2.03;;;15.30;95.00;;;;;;5119405;28;20987;-85
2022/05/30 11:40:52;;;;;;;5.07;2.50;;;15.40;95.10;;;;;;5118477;28;20447;-82
2022/05/30 11:43:43;;;;;;;5.90;1.87;;;15.40;95.10;;;;;;5119901;28;20551;-81
2022/05/30 11:46:21;;;;;;;5.30;2.77;;;15.40;95.00;;;;;;5119509;27;20499;-84
2022/05/30 11:48:58;;;;;;;4.70;1.93;;;15.50;95.00;;;;;;5119627;28;20445;-84
2022/05/30 11:51:38;;;;;;;4.40;1.70;;;15.60;95.10;;;;;;5118442;28;20520;-83
2022/05/30 11:54:29;;;;;;;5.17;1.80;;;15.60;94.70;;;;;;5118624;28;20569;-83
2022/05/30 11:57:07;;;;;;;6.03;1.90;;;15.60;94.40;;;;;;5118465;28;20848;-84
2022/05/30 11:59:53;;;;;;;4.57;1.70;;;15.60;94.50;;;;;;5118190;28;20437;-85
2022/05/30 12:02:29;;;;;;;4.93;1.90;;;15.60;94.30;;;;;;5118201;28;20444;-83
2022/05/30 12:05:23;;;;;;;4.40;1.70;;;15.70;94.30;;;;;;5117987;28;20463;-82
2022/05/30 12:08:15;;;;;;;6.57;2.20;;;15.70;94.30;;;;;;5118874;28;20440;-84
2022/05/30 12:11:06;;;;;;;4.67;1.90;;;15.80;94.40;;;;;;5117994;28;20498;-84
2022/05/30 12:13:51;;;;;;;5.17;2.37;;;15.80;94.30;;;;;;5119052;28;20468;-83
2022/05/30 12:16:29;;;;;;;5.07;2.20;;;15.90;94.10;;;;;;5118726;28;20534;-84
2022/05/30 12:24:56;;;;;;;5.40;2.30;;;15.90;94.10;;;;;;5117450;28;20915;-82
2022/05/30 12:27:35;;;;;;;5.00;2.07;;;15.90;94.00;;;;;;5117887;28;20414;-84
2022/05/30 12:30:07;;;;;;;4.43;2.03;;;16.00;94.00;;;;;;5118960;28;20459;-82
2022/05/30 12:32:46;;;;;;;5.50;2.70;;;16.00;93.90;;;;;;5117658;28;20474;-83
2022/05/30 12:35:29;;;;;;;6.17;2.40;;;15.90;93.90;;;;;;5120880;28;20436;-84
2022/05/30 12:38:45;;;;;;;6.27;2.50;;;16.00;94.00;;;;;;5117481;28;20445;-84
2022/05/30 12:41:26;;;;;;;5.00;1.80;;;16.00;94.00;;;;;;5117908;28;20437;-81
2022/05/30 12:43:55;;;;;;;5.67;2.50;;;16.10;94.00;;;;;;5117269;28;20865;-83
2022/05/30 12:46:25;;;;;;;5.70;2.47;;;16.10;94.00;;;;;;5116858;28;20452;-81
2022/05/30 12:49:17;;;;;;;6.20;2.27;;;16.20;94.00;;;;;;5117275;28;20962;-83
2022/05/30 12:52:14;;;;;;;4.40;1.77;;;16.20;93.80;;;;;;5120067;28;20433;-84
2022/05/30 12:55:09;;;;;;;6.00;2.03;;;16.10;93.60;;;;;;5117201;28;20881;-83
2022/05/30 12:57:42;;;;;;;4.53;1.63;;;16.10;93.70;;;;;;5117045;28;20418;-83
2022/05/30 13:00:24;;;;;;;4.33;1.60;;;16.10;93.60;;;;;;5117223;28;20410;-84
2022/05/30 13:03:12;;;;;;;5.93;2.10;;;16.10;93.70;;;;;;5116407;28;20436;-84
2022/05/30 13:05:48;;;;;;;4.60;1.60;;;16.10;93.70;;;;;;5117018;28;20414;-80
2022/05/30 13:08:52;;;;;;;4.63;1.90;;;16.10;93.60;;;;;;5118201;28;20415;-84
2022/05/30 13:11:37;;;;;;;4.43;2.00;;;16.10;93.50;;;;;;5118262;28;20459;-84
2022/05/30 13:14:16;;;;;;;4.90;1.50;;;16.10;93.60;;;;;;5116557;28;20786;-84
2022/05/30 13:16:48;;;;;;;4.57;1.60;;;16.20;93.80;;;;;;5118844;28;20423;-84
2022/05/30 13:19:19;;;;;;;4.10;1.83;;;16.20;93.80;;;;;;5116352;28;20439;-82
2022/05/30 13:21:50;;;;;;;4.57;1.57;;;16.30;93.60;;;;;;5116627;28;20538;-84
2022/05/30 13:24:33;;;;;;;4.93;1.67;;;16.30;93.30;;;;;;5117821;28;20455;-84
2022/05/30 13:27:02;;;;;;;4.00;1.57;;;16.30;93.20;;;;;;5125327;28;20431;-84
2022/05/30 13:29:34;;;;;;;5.27;2.00;;;16.30;93.00;;;;;;5126484;28;20508;-81
2022/05/30 13:32:05;;;;;;;4.43;1.67;;;16.30;93.10;;;;;;5125335;28;20459;-81
2022/05/30 13:34:34;;;;;;;5.17;1.80;;;16.30;93.00;;;;;;5125085;28;20483;-83
2022/05/30 13:37:04;;;;;;;5.40;1.60;;;16.20;93.00;;;;;;5130177;28;20444;-82
2022/05/30 13:39:33;;;;;;;4.30;1.73;;;16.30;93.00;;;;;;5127196;28;20445;-82
2022/05/30 13:42:01;;;;;;;5.30;1.87;;;16.30;92.90;;;;;;5130298;28;20457;-80
2022/05/30 13:44:35;;;;;;;4.60;1.50;;;16.40;92.90;;;;;;5133649;28;20480;-81
2022/05/30 13:47:08;;;;;;;4.40;1.80;;;16.40;92.80;;;;;;5133046;28;20386;-81
2022/05/30 13:49:40;;;;;;;4.77;1.53;;;16.40;92.80;;;;;;5131524;28;20439;-82
2022/05/30 13:52:14;;;;;;;4.10;1.33;;;16.50;92.70;;;;;;5129863;28;20455;-84
2022/05/30 13:54:44;;;;;;;5.10;2.27;;;16.50;92.70;;;;;;5128442;28;20449;-81
2022/05/30 13:57:14;;;;;;;4.33;1.70;;;16.50;92.60;;;;;;5131119;28;20402;-81
2022/05/30 13:59:49;;;;;;;4.40;1.50;;;16.50;92.60;;;;;;5132575;28;20443;-82
2022/05/30 14:02:43;;;;;;;5.10;1.90;;;16.50;92.70;;;;;;5132793;28;20406;-82